Time;durP1;ratioP1;P1;durP2;ratioP2;P2;SDS_P1;SDS_P2;PMS_P1;PMS_P2;Temp;Humidity;BMP_temperature;BMP_pressure;BME280_temperature;BME280_humidity;BME280_pressure;Samples;Min_cycle;Max_cycle;Signal;HPM_P1;HPM_P2
2023/09/09 00:00:48;;;;;;;6.27;5.77;;;;;;;20.83;nan;99472.09;5054664;28;20449;-80
2023/09/09 00:03:14;;;;;;;7.23;6.60;;;;;;;20.80;nan;99470.59;5040626;28;20195;-80
2023/09/09 00:05:39;;;;;;;6.93;6.23;;;;;;;20.80;nan;99472.41;5057337;28;20450;-81
2023/09/09 00:08:05;;;;;;;6.70;5.73;;;;;;;20.82;nan;99473.94;5055395;28;20196;-81
2023/09/09 00:10:35;;;;;;;7.03;6.37;;;;;;;20.86;nan;99477.09;5058280;28;20745;-80
2023/09/09 00:13:01;;;;;;;9.57;5.50;;;;;;;20.89;nan;99469.56;5040888;28;20204;-80
2023/09/09 00:15:29;;;;;;;10.93;7.23;;;;;;;20.91;nan;99475.59;5063004;28;20628;-80
2023/09/09 00:17:55;;;;;;;6.47;5.20;;;;;;;20.93;nan;99470.09;5065118;28;20424;-80
2023/09/09 00:20:38;;;;;;;7.53;6.83;;;;;;;20.92;nan;99477.25;5065965;28;20465;-79
2023/09/09 00:23:07;;;;;;;7.73;6.00;;;;;;;20.93;nan;99478.09;5064740;28;20563;-80
2023/09/09 00:25:37;;;;;;;12.47;6.63;;;;;;;20.92;nan;99479.91;5055839;28;20772;-80
2023/09/09 00:28:03;;;;;;;6.30;5.70;;;;;;;20.90;nan;99481.94;5061812;28;20455;-80
2023/09/09 00:30:28;;;;;;;6.33;5.63;;;;;;;20.91;nan;99483.59;5073225;28;20487;-81
2023/09/09 00:32:54;;;;;;;6.70;5.90;;;;;;;20.92;nan;99482.56;5073323;28;20461;-80
2023/09/09 00:35:20;;;;;;;6.77;5.83;;;;;;;20.92;nan;99489.75;5056146;28;20263;-79
2023/09/09 00:37:45;;;;;;;7.47;6.10;;;;;;;20.88;nan;99486.59;5061594;28;20200;-80
2023/09/09 00:40:11;;;;;;;7.10;5.70;;;;;;;20.83;nan;99491.59;5077719;28;20389;-80
2023/09/09 00:42:36;;;;;;;6.73;6.10;;;;;;;20.75;nan;99489.75;5057474;28;20533;-80
2023/09/09 00:45:02;;;;;;;6.40;5.80;;;;;;;20.67;nan;99492.41;5058666;28;20200;-81
2023/09/09 00:47:28;;;;;;;7.03;6.33;;;;;;;20.59;nan;99489.75;5050155;28;20196;-80
2023/09/09 00:49:53;;;;;;;6.70;6.00;;;;;;;20.51;nan;99485.19;5074484;28;20427;-81
2023/09/09 00:52:19;;;;;;;7.10;6.10;;;;;;;20.48;nan;99488.19;5043569;28;20312;-80
2023/09/09 00:54:45;;;;;;;7.37;6.50;;;;;;;20.44;nan;99486.00;5061080;28;20207;-81
2023/09/09 00:57:11;;;;;;;6.97;6.37;;;;;;;20.44;nan;99494.00;5043926;28;21354;-80
2023/09/09 00:59:38;;;;;;;6.90;6.20;;;;;;;20.44;nan;99494.88;5060082;28;20210;-80
2023/09/09 01:02:03;;;;;;;9.40;7.13;;;;;;;20.39;nan;99494.53;5060320;28;20477;-80
2023/09/09 01:04:29;;;;;;;8.73;7.10;;;;;;;20.34;nan;99487.00;5044141;28;20486;-80
2023/09/09 01:07:00;;;;;;;8.70;6.17;;;;;;;20.33;nan;99485.34;5044133;28;20277;-78
2023/09/09 01:09:25;;;;;;;9.30;6.10;;;;;;;20.35;nan;99493.16;5059030;28;20589;-81
2023/09/09 01:11:50;;;;;;;6.60;5.60;;;;;;;20.32;nan;99486.31;5061051;28;20837;-81
2023/09/09 01:14:16;;;;;;;7.00;6.30;;;;;;;20.29;nan;99483.16;5058135;28;20556;-81
2023/09/09 01:16:42;;;;;;;7.90;5.60;;;;;;;20.25;nan;99485.34;5061811;28;20207;-81
2023/09/09 01:19:11;;;;;;;8.07;7.27;;;;;;;20.23;nan;99489.97;5063366;28;20203;-81
2023/09/09 01:21:39;;;;;;;8.87;7.00;;;;;;;20.24;nan;99485.47;5059747;28;20447;-81
2023/09/09 01:24:05;;;;;;;7.27;6.57;;;;;;;20.26;nan;99488.81;5041510;28;20455;-81
2023/09/09 01:26:31;;;;;;;10.10;7.37;;;;;;;20.28;nan;99484.13;5041895;28;20469;-80
2023/09/09 01:28:57;;;;;;;10.83;6.50;;;;;;;20.28;nan;99487.66;5061013;28;20481;-80
2023/09/09 01:31:22;;;;;;;9.57;6.23;;;;;;;20.30;nan;99492.81;5057436;28;20218;-80
2023/09/09 01:33:48;;;;;;;7.80;7.00;;;;;;;20.31;nan;99491.84;5040798;28;20449;-80
2023/09/09 01:36:14;;;;;;;8.38;7.28;;;;;;;20.32;nan;99493.50;5057494;28;20509;-80
2023/09/09 01:38:39;;;;;;;7.30;6.60;;;;;;;20.34;nan;99480.84;5060448;28;20291;-80
2023/09/09 01:41:05;;;;;;;7.97;6.90;;;;;;;20.36;nan;99494.84;5042601;28;20226;-81
2023/09/09 01:43:31;;;;;;;8.03;6.43;;;;;;;20.37;nan;99496.50;5042132;28;20197;-80
2023/09/09 01:45:57;;;;;;;7.33;6.63;;;;;;;20.36;nan;99494.00;5059000;28;20452;-80
2023/09/09 01:48:23;;;;;;;6.03;5.43;;;;;;;20.32;nan;99494.31;5040234;28;20239;-79
2023/09/09 01:50:48;;;;;;;6.63;5.87;;;;;;;20.25;nan;99492.47;5060100;28;20208;-81
2023/09/09 01:53:14;;;;;;;5.90;5.10;;;;;;;20.21;nan;99494.63;5060021;28;20534;-81
2023/09/09 01:55:39;;;;;;;8.37;5.80;;;;;;;20.20;nan;99495.66;5043648;28;20199;-81
2023/09/09 01:58:04;;;;;;;5.50;5.00;;;;;;;20.19;nan;99493.97;5043629;28;20199;-80
2023/09/09 02:00:30;;;;;;;6.27;5.67;;;;;;;20.17;nan;99506.63;5041922;28;20201;-81
2023/09/09 02:02:56;;;;;;;6.27;5.67;;;;;;;20.16;nan;99499.63;5044752;28;20200;-80
2023/09/09 02:05:22;;;;;;;6.97;5.93;;;;;;;20.11;nan;99502.75;5041320;28;20518;-79
2023/09/09 02:07:47;;;;;;;6.90;6.20;;;;;;;20.04;nan;99496.44;5041017;28;20208;-80
2023/09/09 02:10:13;;;;;;;8.13;5.87;;;;;;;19.96;nan;99499.06;5038955;28;20735;-80
2023/09/09 02:12:38;;;;;;;7.33;6.57;;;;;;;19.88;nan;99499.03;5056534;28;20203;-80
2023/09/09 02:15:04;;;;;;;5.97;5.47;;;;;;;19.81;nan;99500.66;5056824;28;20202;-80
2023/09/09 02:17:31;;;;;;;5.40;4.70;;;;;;;19.74;nan;99500.47;5038636;28;20755;-80
2023/09/09 02:19:57;;;;;;;6.93;5.90;;;;;;;19.71;nan;99497.25;5037395;28;20988;-79
2023/09/09 02:22:23;;;;;;;6.70;5.47;;;;;;;19.70;nan;99495.59;5040361;28;20691;-79
2023/09/09 02:24:58;;;;;;;6.60;5.00;;;;;;;19.70;nan;99495.59;5062604;28;20205;-81
2023/09/09 02:27:24;;;;;;;6.60;4.93;;;;;;;19.73;nan;99493.44;5042596;28;20640;-80
2023/09/09 02:29:50;;;;;;;5.77;5.17;;;;;;;19.77;nan;99502.81;5057460;28;20505;-80
2023/09/09 02:32:18;;;;;;;5.37;4.87;;;;;;;19.81;nan;99490.00;5054539;28;20530;-81
2023/09/09 02:34:44;;;;;;;8.70;6.20;;;;;;;19.81;nan;99490.00;5037312;28;20466;-81
2023/09/09 02:37:16;;;;;;;8.80;7.90;;;;;;;19.84;nan;99489.66;5036656;28;20452;-81
2023/09/09 02:39:46;;;;;;;12.90;6.87;;;;;;;19.81;nan;99485.50;5056374;28;20270;-81
2023/09/09 02:42:17;;;;;;;7.40;6.20;;;;;;;19.79;nan;99491.97;5039727;28;20961;-80
2023/09/09 02:44:43;;;;;;;7.63;6.77;;;;;;;19.78;nan;99493.81;5058660;28;20454;-81
2023/09/09 02:47:10;;;;;;;5.80;5.30;;;;;;;19.78;nan;99496.47;5057753;28;20454;-79
2023/09/09 02:49:36;;;;;;;7.43;6.73;;;;;;;19.78;nan;99495.66;5055797;28;20456;-80
2023/09/09 02:52:03;;;;;;;9.37;6.13;;;;;;;19.79;nan;99486.63;5040710;28;20543;-80
2023/09/09 02:54:29;;;;;;;7.20;6.43;;;;;;;19.79;nan;99490.13;5040532;28;20452;-80
2023/09/09 02:56:54;;;;;;;7.37;6.73;;;;;;;19.78;nan;99491.13;5044516;28;20451;-80
2023/09/09 02:59:19;;;;;;;7.20;6.13;;;;;;;19.78;nan;99487.66;5062232;28;20214;-80
2023/09/09 03:01:45;;;;;;;8.33;6.10;;;;;;;19.75;nan;99479.97;5046803;28;20518;-80
2023/09/09 03:04:11;;;;;;;7.70;6.20;;;;;;;19.75;nan;99490.63;5068520;28;20201;-80
2023/09/09 03:06:37;;;;;;;6.97;5.83;;;;;;;19.74;nan;99495.13;5042606;28;20205;-80
2023/09/09 03:09:03;;;;;;;7.33;5.80;;;;;;;19.72;nan;99499.78;5059638;28;20957;-80
2023/09/09 03:11:29;;;;;;;9.67;7.37;;;;;;;19.71;nan;99491.94;5044272;28;20598;-80
2023/09/09 03:13:54;;;;;;;7.90;7.10;;;;;;;19.70;nan;99491.09;5043873;28;20426;-80
2023/09/09 03:16:20;;;;;;;9.20;8.30;;;;;;;19.67;nan;99492.25;5043162;28;20201;-80
2023/09/09 03:18:45;;;;;;;7.03;6.43;;;;;;;19.66;nan;99487.94;5049898;28;20455;-80
2023/09/09 03:21:11;;;;;;;6.43;5.80;;;;;;;19.65;nan;99483.53;5072015;28;20196;-80
2023/09/09 03:23:36;;;;;;;7.17;6.40;;;;;;;19.63;nan;99490.88;5073087;28;20221;-81
2023/09/09 03:26:02;;;;;;;7.50;6.70;;;;;;;19.60;nan;99485.84;5054534;28;20246;-80
2023/09/09 03:28:27;;;;;;;9.30;6.60;;;;;;;19.60;nan;99498.34;5057820;28;20293;-80
2023/09/09 03:30:58;;;;;;;7.37;6.67;;;;;;;19.58;nan;99489.69;5066124;28;20858;-80
2023/09/09 03:33:30;;;;;;;11.80;6.70;;;;;;;19.54;nan;99489.16;5047615;28;20667;-80
2023/09/09 03:35:56;;;;;;;7.23;6.53;;;;;;;19.53;nan;99492.00;5064593;28;20986;-80
2023/09/09 03:38:22;;;;;;;8.87;6.23;;;;;;;19.51;nan;99496.63;5063319;28;20579;-79
2023/09/09 03:40:48;;;;;;;7.00;6.40;;;;;;;19.48;nan;99502.28;5042439;28;21001;-79
2023/09/09 03:43:14;;;;;;;11.40;6.83;;;;;;;19.44;nan;99502.59;5061394;28;20448;-81
2023/09/09 03:45:40;;;;;;;7.40;6.60;;;;;;;19.40;nan;99498.56;5050221;28;20198;-80
2023/09/09 03:48:05;;;;;;;10.37;6.57;;;;;;;19.38;nan;99499.72;5049706;28;20433;-80
2023/09/09 03:50:31;;;;;;;11.57;6.80;;;;;;;19.34;nan;99501.03;5048897;28;20612;-79
2023/09/09 03:52:58;;;;;;;6.97;5.70;;;;;;;19.31;nan;99503.97;5045199;28;20461;-79
2023/09/09 03:55:25;;;;;;;7.40;6.67;;;;;;;19.31;nan;99501.31;5059352;28;20427;-79
2023/09/09 03:57:51;;;;;;;6.80;6.13;;;;;;;19.32;nan;99500.34;5033512;28;20456;-79
2023/09/09 04:00:17;;;;;;;6.20;5.60;;;;;;;19.34;nan;99506.38;5039744;28;20501;-79
2023/09/09 04:02:43;;;;;;;12.07;7.13;;;;;;;19.35;nan;99508.03;5056969;28;20463;-79
2023/09/09 04:05:10;;;;;;;6.87;6.27;;;;;;;19.36;nan;99507.88;5042084;28;20191;-80
2023/09/09 04:07:36;;;;;;;6.70;6.00;;;;;;;19.36;nan;99507.88;5041878;28;20444;-79
2023/09/09 04:10:03;;;;;;;7.73;6.60;;;;;;;19.35;nan;99508.03;5042623;28;20210;-80
2023/09/09 04:12:29;;;;;;;6.23;5.63;;;;;;;19.33;nan;99513.50;5041432;28;20483;-79
2023/09/09 04:14:54;;;;;;;6.53;5.93;;;;;;;19.29;nan;99508.66;5042384;28;20842;-80
2023/09/09 04:17:20;;;;;;;5.80;5.30;;;;;;;19.26;nan;99504.47;5036629;28;20257;-80
2023/09/09 04:19:45;;;;;;;5.80;5.07;;;;;;;19.22;nan;99505.75;5038417;28;20636;-80
2023/09/09 04:22:11;;;;;;;6.10;5.50;;;;;;;19.20;nan;99508.59;5042731;28;20669;-80
2023/09/09 04:24:37;;;;;;;5.70;5.10;;;;;;;19.20;nan;99507.78;5023371;28;20202;-80
2023/09/09 04:27:02;;;;;;;8.17;6.60;;;;;;;19.20;nan;99505.09;5058702;28;20280;-80
2023/09/09 04:29:28;;;;;;;7.27;6.67;;;;;;;19.20;nan;99505.94;5049392;28;21251;-80
2023/09/09 04:31:54;;;;;;;7.47;6.77;;;;;;;19.20;nan;99505.94;5044131;28;20329;-80
2023/09/09 04:34:19;;;;;;;9.53;7.10;;;;;;;19.22;nan;99511.09;5046835;28;20239;-80
2023/09/09 04:36:45;;;;;;;8.20;7.43;;;;;;;19.22;nan;99508.44;5041726;28;20230;-80
2023/09/09 04:39:15;;;;;;;7.40;6.70;;;;;;;19.21;nan;99509.44;5038499;28;20201;-79
2023/09/09 04:41:42;;;;;;;8.43;6.93;;;;;;;19.19;nan;99516.72;5042533;28;20497;-80
2023/09/09 04:44:08;;;;;;;7.73;7.03;;;;;;;19.17;nan;99510.72;5041046;28;20443;-80
2023/09/09 04:46:34;;;;;;;7.77;6.20;;;;;;;19.15;nan;99513.56;5041000;28;20750;-79
2023/09/09 04:49:00;;;;;;;9.20;7.20;;;;;;;19.15;nan;99521.53;5040392;28;20490;-81
2023/09/09 04:51:25;;;;;;;7.40;6.70;;;;;;;19.11;nan;99509.50;5038786;28;20216;-80
2023/09/09 04:53:52;;;;;;;7.80;6.57;;;;;;;19.10;nan;99513.19;5042082;28;20930;-81
2023/09/09 04:56:17;;;;;;;9.30;6.37;;;;;;;19.09;nan;99515.97;5040630;28;20189;-81
2023/09/09 04:58:43;;;;;;;7.63;6.37;;;;;;;19.09;nan;99516.84;5040574;28;20824;-81
2023/09/09 05:01:09;;;;;;;12.20;7.07;;;;;;;19.08;nan;99514.31;5052729;28;20751;-81
2023/09/09 05:03:35;;;;;;;11.93;7.10;;;;;;;19.05;nan;99515.47;5053435;28;20213;-81
2023/09/09 05:06:01;;;;;;;6.63;5.70;;;;;;;19.02;nan;99516.59;5033936;28;20426;-81
2023/09/09 05:08:26;;;;;;;9.10;6.93;;;;;;;19.02;nan;99511.28;5033518;28;20214;-81
2023/09/09 05:10:52;;;;;;;7.83;6.50;;;;;;;19.04;nan;99513.81;5035900;28;20483;-81
2023/09/09 05:13:17;;;;;;;10.40;7.07;;;;;;;19.06;nan;99516.28;5048204;28;20201;-82
2023/09/09 05:15:43;;;;;;;9.10;8.07;;;;;;;19.07;nan;99518.81;5033610;28;20266;-80
2023/09/09 05:18:09;;;;;;;6.90;6.20;;;;;;;19.08;nan;99516.97;5055087;28;20447;-80
2023/09/09 05:20:34;;;;;;;9.50;7.13;;;;;;;19.08;nan;99523.13;5053887;28;20201;-81
2023/09/09 05:23:00;;;;;;;6.70;6.00;;;;;;;19.12;nan;99519.19;5037611;28;20347;-81
2023/09/09 05:25:25;;;;;;;10.27;7.47;;;;;;;19.15;nan;99526.88;5054486;28;20228;-80
2023/09/09 05:27:51;;;;;;;8.60;6.80;;;;;;;19.18;nan;99531.88;5038532;28;20501;-80
2023/09/09 05:30:17;;;;;;;7.93;7.13;;;;;;;19.23;nan;99528.75;5036062;28;20226;-79
2023/09/09 05:32:42;;;;;;;31.50;8.43;;;;;;;19.24;nan;99525.91;5035841;28;21073;-80
2023/09/09 05:35:10;;;;;;;10.30;7.20;;;;;;;19.22;nan;99533.22;5036764;28;20285;-80
2023/09/09 05:37:36;;;;;;;9.07;5.80;;;;;;;19.22;nan;99537.72;5037598;28;20598;-80
2023/09/09 05:40:02;;;;;;;9.80;6.03;;;;;;;19.20;nan;99537.88;5034631;28;20498;-80
2023/09/09 05:42:28;;;;;;;6.60;5.87;;;;;;;19.17;nan;99545.31;5034854;28;20196;-81
2023/09/09 05:44:54;;;;;;;8.37;6.87;;;;;;;19.14;nan;99540.31;5054180;28;20863;-80
2023/09/09 05:47:20;;;;;;;8.03;6.23;;;;;;;19.13;nan;99539.50;5036376;28;20659;-80
2023/09/09 05:49:46;;;;;;;7.27;6.27;;;;;;;19.17;nan;99540.88;5034245;28;20474;-80
2023/09/09 05:52:14;;;;;;;7.83;6.70;;;;;;;19.27;nan;99547.91;5035513;28;20246;-80
2023/09/09 05:54:42;;;;;;;7.90;6.20;;;;;;;19.46;nan;99545.88;5036394;28;20255;-81
2023/09/09 05:57:08;;;;;;;10.10;6.63;;;;;;;19.91;nan;99544.03;5036245;28;20451;-81
2023/09/09 05:59:34;;;;;;;7.90;7.07;;;;;;;20.45;nan;99547.22;5039830;28;20740;-81
2023/09/09 06:02:01;;;;;;;7.40;6.20;;;;;;;20.74;nan;99544.16;5041249;28;20816;-81
2023/09/09 06:04:26;;;;;;;7.83;6.13;;;;;;;20.87;nan;99545.50;5038037;28;20453;-81
2023/09/09 06:06:51;;;;;;;6.73;6.20;;;;;;;20.92;nan;99552.00;5038482;28;20201;-81
2023/09/09 06:09:17;;;;;;;7.40;6.53;;;;;;;20.93;nan;99560.88;5056295;28;20232;-82
2023/09/09 06:11:44;;;;;;;7.87;7.10;;;;;;;20.88;nan;99558.69;5037248;28;20233;-82
2023/09/09 06:14:09;;;;;;;11.17;8.07;;;;;;;20.87;nan;99558.84;5058289;28;20437;-82
2023/09/09 06:16:35;;;;;;;9.60;8.70;;;;;;;20.97;nan;99556.84;5057293;28;20202;-82
2023/09/09 06:19:01;;;;;;;10.20;8.83;;;;;;;21.34;nan;99561.69;5038882;28;20207;-82
2023/09/09 06:21:27;;;;;;;9.20;7.97;;;;;;;21.92;nan;99561.63;5034183;28;20514;-82
2023/09/09 06:23:54;;;;;;;9.57;7.27;;;;;;;22.46;nan;99559.91;5039013;28;21129;-82
2023/09/09 06:26:20;;;;;;;8.30;7.50;;;;;;;22.71;nan;99565.13;5035827;28;20429;-82
2023/09/09 06:28:45;;;;;;;9.83;7.53;;;;;;;22.68;nan;99557.44;5056633;28;20456;-82
2023/09/09 06:31:11;;;;;;;9.83;8.70;;;;;;;22.59;nan;99564.69;5040888;28;20323;-83
2023/09/09 06:33:36;;;;;;;8.40;7.40;;;;;;;22.50;nan;99565.75;5038194;28;20241;-82
2023/09/09 06:36:02;;;;;;;8.40;7.60;;;;;;;22.40;nan;99565.97;5036285;28;20196;-83
2023/09/09 06:38:27;;;;;;;10.80;9.10;;;;;;;22.28;nan;99570.88;5037849;28;21945;-82
2023/09/09 06:40:53;;;;;;;11.50;8.83;;;;;;;22.20;nan;99573.59;5057019;28;20199;-82
2023/09/09 06:43:20;;;;;;;9.70;8.20;;;;;;;22.16;nan;99571.41;5057845;28;20190;-82
2023/09/09 06:45:46;;;;;;;9.80;8.37;;;;;;;22.14;nan;99573.41;5056590;28;20293;-82
2023/09/09 06:48:16;;;;;;;9.83;8.83;;;;;;;22.13;nan;99564.56;5056733;28;20513;-82
2023/09/09 06:50:48;;;;;;;12.90;8.80;;;;;;;22.06;nan;99576.94;5056732;28;20982;-82
2023/09/09 06:53:14;;;;;;;13.90;9.63;;;;;;;22.05;nan;99577.97;5055260;28;20485;-81
2023/09/09 06:55:41;;;;;;;8.20;7.30;;;;;;;22.05;nan;99572.59;5058115;28;20446;-81
2023/09/09 06:58:07;;;;;;;9.83;8.83;;;;;;;22.09;nan;99571.28;5057445;28;20845;-81
2023/09/09 07:00:33;;;;;;;8.90;8.00;;;;;;;22.15;nan;99569.75;5040145;28;20443;-81
2023/09/09 07:02:58;;;;;;;9.60;8.60;;;;;;;22.19;nan;99574.59;5056111;28;20464;-81
2023/09/09 07:05:27;;;;;;;9.25;7.80;;;;;;;22.26;nan;99578.25;5058198;28;20116;-82
2023/09/09 07:07:53;;;;;;;8.63;7.70;;;;;;;22.35;nan;99579.03;5058905;28;20216;-81
2023/09/09 07:10:18;;;;;;;11.13;8.37;;;;;;;22.42;nan;99579.19;5056827;28;20478;-81
2023/09/09 07:12:44;;;;;;;9.33;8.43;;;;;;;22.50;nan;99584.50;5055264;28;20264;-81
2023/09/09 07:15:09;;;;;;;10.63;7.90;;;;;;;22.57;nan;99577.41;5055862;28;20546;-82
2023/09/09 07:17:35;;;;;;;10.03;8.30;;;;;;;22.67;nan;99579.88;5059522;28;20204;-81
2023/09/09 07:20:01;;;;;;;9.90;7.93;;;;;;;22.74;nan;99578.19;5056020;28;20208;-81
2023/09/09 07:22:27;;;;;;;10.13;9.10;;;;;;;22.85;nan;99577.75;5056862;28;20620;-81
2023/09/09 07:24:53;;;;;;;12.03;8.80;;;;;;;22.96;nan;99579.22;5057575;28;20430;-81
2023/09/09 07:27:20;;;;;;;8.93;8.00;;;;;;;23.08;nan;99574.28;5061633;28;20413;-82
2023/09/09 07:29:45;;;;;;;14.00;8.90;;;;;;;23.17;nan;99574.03;5040171;28;20533;-81
2023/09/09 07:32:11;;;;;;;7.83;7.13;;;;;;;23.35;nan;99564.84;5055970;28;20445;-82
2023/09/09 07:34:36;;;;;;;7.80;7.10;;;;;;;23.95;nan;99569.31;5040039;28;20282;-82
2023/09/09 07:37:20;;;;;;;8.50;7.57;;;;;;;24.98;nan;99561.22;5056791;28;20193;-82
2023/09/09 07:39:49;;;;;;;11.10;8.77;;;;;;;25.96;nan;99559.56;5057938;28;20232;-81
2023/09/09 07:42:15;;;;;;;9.03;8.23;;;;;;;26.87;nan;99560.13;5057552;28;20443;-81
2023/09/09 07:44:53;;;;;;;7.67;6.93;;;;;;;27.61;nan;99560.19;5062735;28;20459;-82
2023/09/09 07:47:20;;;;;;;10.97;7.30;;;;;;;28.26;nan;99560.25;5065216;28;20445;-81
2023/09/09 07:49:46;;;;;;;8.40;7.57;;;;;;;28.85;nan;99561.84;5062102;28;20498;-83
2023/09/09 07:52:12;;;;;;;8.93;8.03;;;;;;;29.46;nan;99554.94;5052368;28;20692;-83
2023/09/09 07:54:37;;;;;;;8.43;7.53;;;;;;;29.89;nan;99560.38;5053754;28;20465;-81
2023/09/09 07:57:03;;;;;;;8.30;7.50;;;;;;;30.32;nan;99558.66;5054469;28;21025;-84
2023/09/09 07:59:29;;;;;;;7.47;6.60;;;;;;;30.89;nan;99548.28;5052934;28;20201;-83
2023/09/09 08:01:55;;;;;;;7.13;6.40;;;;;;;31.34;nan;99555.94;5053600;28;20638;-83
2023/09/09 08:04:21;;;;;;;8.65;7.80;;;;;;;31.87;nan;99554.19;5052457;28;20808;-83
2023/09/09 08:06:47;;;;;;;8.30;7.60;;;;;;;32.24;nan;99552.00;5054004;28;20189;-81
2023/09/09 08:09:13;;;;;;;8.13;7.30;;;;;;;32.60;nan;99547.31;5053753;28;20205;-81
2023/09/09 08:11:38;;;;;;;9.90;7.13;;;;;;;32.89;nan;99544.53;5056577;28;20213;-81
2023/09/09 08:14:04;;;;;;;8.07;7.43;;;;;;;33.25;nan;99552.25;5057338;28;20469;-81
2023/09/09 08:16:30;;;;;;;7.70;7.00;;;;;;;33.54;nan;99552.19;5056451;28;20673;-81
2023/09/09 08:18:56;;;;;;;7.63;7.03;;;;;;;33.81;nan;99546.88;5056769;28;20467;-81
2023/09/09 08:21:22;;;;;;;7.00;6.33;;;;;;;34.10;nan;99544.78;5056922;28;20201;-81
2023/09/09 08:23:47;;;;;;;7.10;6.50;;;;;;;34.27;nan;99554.81;5055226;28;20504;-81
2023/09/09 08:26:12;;;;;;;7.37;6.77;;;;;;;34.47;nan;99546.06;5054369;28;20201;-81
2023/09/09 08:28:39;;;;;;;7.33;6.63;;;;;;;34.68;nan;99550.66;5054915;28;20226;-81
2023/09/09 08:31:05;;;;;;;12.13;7.10;;;;;;;34.84;nan;99548.91;5055252;28;20280;-81
2023/09/09 08:33:30;;;;;;;7.77;6.97;;;;;;;34.97;nan;99540.31;5055229;28;20554;-81
2023/09/09 08:36:00;;;;;;;10.70;7.50;;;;;;;35.05;nan;99544.44;5054440;28;20303;-81
2023/09/09 08:38:25;;;;;;;7.60;6.90;;;;;;;34.99;nan;99540.84;5054929;28;20232;-81
2023/09/09 08:41:09;;;;;;;12.33;7.57;;;;;;;34.75;nan;99542.25;5056935;28;20497;-82
2023/09/09 08:43:48;;;;;;;9.20;7.33;;;;;;;34.35;nan;99541.56;5057651;28;20615;-82
2023/09/09 08:46:19;;;;;;;8.50;7.10;;;;;;;34.18;nan;99535.34;5058392;28;20442;-82
2023/09/09 08:48:48;;;;;;;7.37;6.77;;;;;;;34.06;nan;99532.78;5059208;28;20554;-82
2023/09/09 08:51:17;;;;;;;8.60;7.80;;;;;;;33.90;nan;99537.16;5059926;28;20493;-82
2023/09/09 08:53:44;;;;;;;9.87;7.00;;;;;;;33.78;nan;99541.91;5055623;28;20486;-82
2023/09/09 08:56:13;;;;;;;8.97;8.07;;;;;;;33.53;nan;99539.63;5056118;28;20485;-82
2023/09/09 08:58:41;;;;;;;11.27;8.90;;;;;;;33.31;nan;99541.47;5054615;28;20467;-82
2023/09/09 09:01:07;;;;;;;8.77;7.90;;;;;;;32.88;nan;99532.00;5056513;28;20435;-82
2023/09/09 09:03:33;;;;;;;8.43;6.90;;;;;;;32.60;nan;99539.97;5058849;28;20493;-82
2023/09/09 09:06:03;;;;;;;9.00;7.90;;;;;;;32.39;nan;99541.44;5056293;28;20459;-82
2023/09/09 09:08:28;;;;;;;8.50;6.97;;;;;;;32.24;nan;99538.41;5056337;28;20209;-82
2023/09/09 09:10:57;;;;;;;10.40;8.13;;;;;;;32.08;nan;99541.88;5060099;28;20514;-82
2023/09/09 09:13:23;;;;;;;9.00;7.30;;;;;;;31.91;nan;99534.44;5057945;28;20858;-82
2023/09/09 09:15:48;;;;;;;8.50;7.60;;;;;;;31.72;nan;99535.66;5036932;28;21045;-82
2023/09/09 09:18:14;;;;;;;8.30;6.70;;;;;;;31.55;nan;99529.31;5051643;28;20604;-83
2023/09/09 09:20:40;;;;;;;7.07;6.37;;;;;;;31.50;nan;99536.25;5054374;28;20255;-83
2023/09/09 09:23:10;;;;;;;8.40;7.60;;;;;;;31.53;nan;99538.50;5057731;28;20766;-82
2023/09/09 09:25:44;;;;;;;7.03;6.17;;;;;;;31.59;nan;99535.91;5058303;28;20474;-83
2023/09/09 09:28:15;;;;;;;8.07;6.73;;;;;;;31.51;nan;99532.50;5058005;28;20512;-82
2023/09/09 09:30:41;;;;;;;8.43;7.63;;;;;;;31.48;nan;99526.69;5064224;28;20483;-83
2023/09/09 09:33:06;;;;;;;6.90;6.30;;;;;;;31.53;nan;99527.63;5059338;28;20632;-83
2023/09/09 09:35:35;;;;;;;8.88;7.38;;;;;;;31.52;nan;99526.00;5060041;28;20486;-84
2023/09/09 09:38:03;;;;;;;7.33;6.73;;;;;;;31.50;nan;99533.53;5062358;28;20193;-83
2023/09/09 09:40:30;;;;;;;7.60;7.00;;;;;;;31.45;nan;99535.31;5059385;28;20459;-83
2023/09/09 09:42:56;;;;;;;7.57;6.87;;;;;;;31.41;nan;99534.97;5059997;28;20466;-83
2023/09/09 09:45:24;;;;;;;8.80;7.83;;;;;;;31.48;nan;99529.41;5058253;28;20455;-82
2023/09/09 09:47:50;;;;;;;9.23;8.20;;;;;;;31.64;nan;99525.16;5059358;28;20472;-82
2023/09/09 09:50:28;;;;;;;8.20;5.93;;;;;;;31.66;nan;99523.03;5059546;28;20462;-82
2023/09/09 09:52:59;;;;;;;9.33;6.87;;;;;;;31.55;nan;99521.97;5058542;28;20998;-82
2023/09/09 09:55:25;;;;;;;7.80;7.00;;;;;;;31.41;nan;99521.41;5058182;28;20482;-83
2023/09/09 09:57:54;;;;;;;7.10;6.40;;;;;;;31.28;nan;99522.41;5059517;28;20451;-83
2023/09/09 10:00:21;;;;;;;7.33;6.73;;;;;;;31.23;nan;99524.19;5057230;28;20467;-83
2023/09/09 10:02:51;;;;;;;6.93;6.43;;;;;;;31.27;nan;99523.50;5057332;28;20820;-82
2023/09/09 10:05:21;;;;;;;8.00;7.27;;;;;;;31.43;nan;99518.44;5062148;28;20533;-83
2023/09/09 10:07:51;;;;;;;7.83;7.10;;;;;;;31.60;nan;99516.66;5062068;28;20443;-82
2023/09/09 10:10:19;;;;;;;7.37;6.43;;;;;;;31.72;nan;99520.19;5058616;28;20467;-83
2023/09/09 10:12:51;;;;;;;7.53;6.77;;;;;;;31.76;nan;99520.56;5060552;28;20990;-84
2023/09/09 10:15:20;;;;;;;7.30;6.50;;;;;;;31.83;nan;99515.78;5064152;28;21745;-83
2023/09/09 10:17:48;;;;;;;7.60;6.90;;;;;;;31.91;nan;99515.44;5067813;28;20791;-81
2023/09/09 10:20:14;;;;;;;7.30;6.07;;;;;;;31.91;nan;99512.72;5065956;28;20522;-82
2023/09/09 10:22:41;;;;;;;7.73;6.53;;;;;;;31.96;nan;99515.56;5070221;28;20530;-82
2023/09/09 10:25:10;;;;;;;7.97;7.27;;;;;;;32.02;nan;99511.06;5070424;28;20457;-82
2023/09/09 10:27:37;;;;;;;7.63;6.90;;;;;;;32.14;nan;99511.03;5067904;28;20462;-82
2023/09/09 10:30:03;;;;;;;8.83;7.93;;;;;;;32.24;nan;99516.66;5064852;28;20706;-82
2023/09/09 10:32:30;;;;;;;9.57;6.23;;;;;;;32.25;nan;99512.06;5060678;28;20528;-83
2023/09/09 10:34:58;;;;;;;6.93;6.23;;;;;;;32.24;nan;99510.41;5058876;28;20935;-83
2023/09/09 10:37:25;;;;;;;7.27;6.57;;;;;;;32.18;nan;99498.59;5058400;28;20455;-83
2023/09/09 10:39:51;;;;;;;9.73;7.07;;;;;;;32.20;nan;99504.63;5057089;28;20584;-83
2023/09/09 10:42:18;;;;;;;7.30;6.60;;;;;;;32.34;nan;99499.72;5060343;28;20443;-83
2023/09/09 10:44:48;;;;;;;8.67;7.03;;;;;;;32.43;nan;99498.25;5059615;28;20702;-83
2023/09/09 10:47:15;;;;;;;7.07;6.30;;;;;;;32.51;nan;99500.63;5059927;28;20448;-83
2023/09/09 10:49:41;;;;;;;6.60;6.00;;;;;;;32.45;nan;99500.75;5066246;28;20443;-83
2023/09/09 10:52:06;;;;;;;6.93;6.30;;;;;;;32.26;nan;99503.66;5048395;28;20466;-82
2023/09/09 10:54:33;;;;;;;7.37;6.77;;;;;;;32.15;nan;99504.53;5060979;28;20235;-83
2023/09/09 10:57:02;;;;;;;6.80;6.20;;;;;;;32.00;nan;99498.78;5059771;28;20212;-82
2023/09/09 10:59:30;;;;;;;10.10;7.33;;;;;;;32.05;nan;99496.16;5059839;28;20513;-83
2023/09/09 11:02:09;;;;;;;8.03;7.33;;;;;;;32.11;nan;99497.94;5062244;28;20453;-82
2023/09/09 11:04:38;;;;;;;9.63;6.30;;;;;;;32.17;nan;99495.06;5059510;28;20510;-83
2023/09/09 11:07:10;;;;;;;8.90;6.60;;;;;;;32.34;nan;99486.16;5064094;28;20565;-83
2023/09/09 11:09:37;;;;;;;6.83;5.57;;;;;;;32.43;nan;99492.81;5057518;28;20455;-83
2023/09/09 11:12:13;;;;;;;8.23;7.07;;;;;;;32.38;nan;99484.59;5061312;28;21002;-84
2023/09/09 11:14:46;;;;;;;7.80;7.00;;;;;;;32.41;nan;99484.13;5058792;28;20458;-84
2023/09/09 11:17:13;;;;;;;5.83;5.17;;;;;;;32.49;nan;99483.75;5059734;28;20693;-84
2023/09/09 11:19:40;;;;;;;7.90;6.60;;;;;;;32.48;nan;99481.25;5053780;28;20516;-83
2023/09/09 11:22:07;;;;;;;7.60;6.87;;;;;;;32.47;nan;99482.34;5054468;28;20447;-82
2023/09/09 11:24:36;;;;;;;6.77;6.10;;;;;;;32.48;nan;99482.06;5035511;28;20455;-83
2023/09/09 11:27:02;;;;;;;6.63;5.60;;;;;;;32.50;nan;99484.56;5054654;28;20597;-82
2023/09/09 11:29:27;;;;;;;5.80;5.20;;;;;;;32.47;nan;99483.16;5053162;28;21193;-82
2023/09/09 11:31:53;;;;;;;5.70;5.20;;;;;;;32.45;nan;99484.44;5035687;28;20559;-83
2023/09/09 11:34:28;;;;;;;7.80;7.10;;;;;;;32.39;nan;99481.63;5055628;28;20463;-82
2023/09/09 11:36:54;;;;;;;6.00;5.33;;;;;;;32.37;nan;99483.75;5059047;28;20279;-85
2023/09/09 11:39:19;;;;;;;7.23;6.60;;;;;;;32.34;nan;99473.38;5061628;28;20594;-85
2023/09/09 11:41:45;;;;;;;9.63;5.60;;;;;;;32.35;nan;99475.03;5064543;28;20181;-84
2023/09/09 11:44:10;;;;;;;6.10;5.50;;;;;;;32.33;nan;99476.34;5068493;28;20577;-84
2023/09/09 11:46:39;;;;;;;7.63;6.20;;;;;;;32.33;nan;99471.72;5066186;28;20201;-84